Terminal Aerodrome Forecast
Issued by NWS

Home | Current Version | Previous Version | Text Only | Print | Product List | Glossary On
Versions: 1 2 3 4 5 6 7 8 9 10 11 12 13 14 15 16 17 18
517
FTUS46 KMTR 202323
TAFOAK
TAF
KOAK 202323Z 2100/2206 23013KT P6SM -SHRA FEW015 BKN050 BKN100
     FM210300 25015G22KT P6SM -SHRA BKN050 OVC080
     FM210600 25015KT P6SM VCSH BKN050 OVC100
     FM211400 23011KT P6SM VCSH BKN050 OVC100
     FM220000 18011KT P6SM -SHRA BKN050 OVC100
     FM220300 14011KT P6SM -RA BKN050 OVC100=

USA.gov is the U.S. government's official web portal to all federal, state and local government web resources and services.